Time;durP1;ratioP1;P1;durP2;ratioP2;P2;SDS_P1;SDS_P2;PMS_P1;PMS_P2;Temp;Humidity;BMP_temperature;BMP_pressure;BME280_temperature;BME280_humidity;BME280_pressure;Samples;Min_cycle;Max_cycle;Signal;HPM_P1;HPM_P2
2021/12/18 10:10:13;;;;;;;35.17;20.27;;;1.10;99.90;;;;;;5048158;27;2125082;-78
2021/12/18 10:12:41;;;;;;;38.70;20.50;;;1.10;99.90;;;;;;5094345;28;20086;-76
2021/12/18 10:15:16;;;;;;;35.00;18.65;;;1.20;99.90;;;;;;5085830;28;20401;-81
2021/12/18 10:17:44;;;;;;;37.35;19.90;;;1.20;99.90;;;;;;5097025;28;20105;-82
2021/12/18 10:20:23;;;;;;;31.92;16.98;;;1.30;99.90;;;;;;5077119;28;20955;-81
2021/12/18 10:22:53;;;;;;;28.75;17.55;;;1.40;99.90;;;;;;5097283;28;20044;-79
2021/12/18 10:25:26;;;;;;;28.65;15.88;;;1.50;99.90;;;;;;5098466;28;20126;-80
2021/12/18 10:28:03;;;;;;;27.75;16.55;;;1.60;99.90;;;;;;5097903;28;20054;-81
2021/12/18 10:30:31;;;;;;;31.23;17.17;;;1.60;99.90;;;;;;5080357;28;20041;-83
2021/12/18 10:33:05;;;;;;;35.13;18.95;;;1.70;99.90;;;;;;5075779;28;20059;-80
2021/12/18 10:35:46;;;;;;;28.33;16.60;;;1.80;99.90;;;;;;5092756;28;20093;-81
2021/12/18 10:38:45;;;;;;;28.63;17.48;;;1.90;99.90;;;;;;5095017;28;20031;-83
2021/12/18 10:41:34;;;;;;;30.23;16.27;;;1.90;99.90;;;;;;5093992;28;20427;-78
2021/12/18 10:44:06;;;;;;;27.52;17.17;;;1.80;99.90;;;;;;5071059;28;20048;-78
2021/12/18 10:46:36;;;;;;;27.83;16.50;;;1.80;99.90;;;;;;5086989;28;20051;-80
2021/12/18 10:49:06;;;;;;;28.80;16.38;;;1.80;99.90;;;;;;5077235;28;20062;-82
2021/12/18 10:51:36;;;;;;;30.05;17.30;;;1.80;99.90;;;;;;5091853;28;20048;-80
2021/12/18 10:54:07;;;;;;;29.25;17.35;;;1.70;99.90;;;;;;5077553;28;20068;-80
2021/12/18 10:56:39;;;;;;;36.72;19.35;;;1.80;99.90;;;;;;5092978;28;20049;-78
2021/12/18 10:59:21;;;;;;;35.97;22.08;;;1.80;99.90;;;;;;5096441;28;20079;-78
2021/12/18 11:01:53;;;;;;;36.25;19.55;;;1.80;99.90;;;;;;5095992;28;20044;-79
2021/12/18 11:04:26;;;;;;;39.08;18.25;;;1.80;99.90;;;;;;5074112;28;20040;-80
2021/12/18 11:06:55;;;;;;;45.65;21.30;;;1.80;99.90;;;;;;5094926;28;20039;-80
2021/12/18 11:09:30;;;;;;;46.60;25.17;;;1.90;99.90;;;;;;5079790;28;20504;-80
2021/12/18 11:14:48;;;;;;;32.95;18.77;;;1.90;99.90;;;;;;5065894;28;20062;-85
2021/12/18 11:17:17;;;;;;;33.25;17.08;;;1.90;99.90;;;;;;5075888;28;20076;-82
2021/12/18 11:19:45;;;;;;;23.40;13.93;;;1.90;99.90;;;;;;5091922;28;20401;-81
2021/12/18 11:22:15;;;;;;;29.50;13.85;;;1.90;99.90;;;;;;5063295;28;20082;-81
2021/12/18 11:24:50;;;;;;;34.42;15.40;;;2.00;99.90;;;;;;5079401;28;20505;-83
2021/12/18 11:27:21;;;;;;;37.28;15.10;;;2.00;99.90;;;;;;5079746;28;20461;-80
2021/12/18 11:29:53;;;;;;;28.67;14.43;;;2.00;99.90;;;;;;5085780;28;20472;-81
2021/12/18 11:32:23;;;;;;;28.50;15.65;;;2.10;99.90;;;;;;5056154;28;20052;-79
2021/12/18 11:34:54;;;;;;;29.65;13.35;;;2.10;99.90;;;;;;5090216;28;20397;-79
2021/12/18 11:37:25;;;;;;;34.45;14.73;;;2.20;99.90;;;;;;5056963;28;20077;-80
2021/12/18 11:39:58;;;;;;;36.45;16.52;;;2.10;99.90;;;;;;5090847;28;20051;-81
2021/12/18 11:42:32;;;;;;;29.55;15.00;;;2.10;99.90;;;;;;5092814;28;20075;-79
2021/12/18 11:45:01;;;;;;;;;;;2.10;99.90;;;;;;5092407;28;20130;-80
2021/12/18 11:47:33;;;;;;;41.28;16.17;;;2.20;99.90;;;;;;5091076;28;19924;-80
2021/12/18 11:50:06;;;;;;;45.10;18.10;;;2.10;99.90;;;;;;5072913;28;20052;-80
2021/12/18 11:52:58;;;;;;;36.97;17.67;;;2.10;99.90;;;;;;5091214;28;20513;-80
2021/12/18 11:55:28;;;;;;;31.27;14.30;;;2.10;99.90;;;;;;5070421;28;20075;-79
2021/12/18 11:58:00;;;;;;;37.25;15.82;;;2.10;99.90;;;;;;5053011;28;20520;-79
2021/12/18 12:00:43;;;;;;;38.25;15.00;;;2.20;99.90;;;;;;5072361;28;20166;-79
2021/12/18 12:03:12;;;;;;;30.52;15.40;;;2.10;99.90;;;;;;5054752;28;20058;-80
2021/12/18 12:05:43;;;;;;;31.13;14.57;;;2.10;99.90;;;;;;5072678;28;20044;-80
2021/12/18 12:08:36;;;;;;;35.70;12.82;;;2.10;99.90;;;;;;5072618;28;20044;-80
2021/12/18 12:11:17;;;;;;;39.20;13.73;;;2.10;99.90;;;;;;5071139;28;20084;-81
2021/12/18 12:14:19;;;;;;;26.95;11.35;;;2.10;99.90;;;;;;5054634;28;20106;-79
2021/12/18 12:17:14;;;;;;;32.50;13.30;;;2.10;99.90;;;;;;5072357;28;20057;-79
2021/12/18 12:19:54;;;;;;;35.38;12.05;;;2.10;99.90;;;;;;5071583;28;20075;-78
2021/12/18 12:22:53;;;;;;;28.23;11.52;;;2.20;99.90;;;;;;5072354;28;20049;-82
2021/12/18 12:26:01;;;;;;;30.92;12.70;;;2.20;99.90;;;;;;5054613;28;20450;-80
2021/12/18 12:28:33;;;;;;;32.22;13.20;;;2.20;99.90;;;;;;5065170;28;20443;-81
2021/12/18 12:31:12;;;;;;;18.88;10.90;;;2.20;99.90;;;;;;5077984;28;20055;-81
2021/12/18 12:33:40;;;;;;;17.30;8.95;;;2.20;99.90;;;;;;5071599;28;20677;-81
2021/12/18 12:36:12;;;;;;;19.40;9.52;;;2.20;99.90;;;;;;5082939;28;20102;-80
2021/12/18 12:38:54;;;;;;;16.85;9.60;;;2.20;99.90;;;;;;5092342;28;20592;-79
2021/12/18 12:41:39;;;;;;;20.60;9.27;;;2.20;99.90;;;;;;5073624;28;20427;-81
2021/12/18 12:44:17;;;;;;;18.80;9.55;;;2.20;99.90;;;;;;5090601;28;20062;-79
2021/12/18 12:46:47;;;;;;;16.48;8.30;;;2.20;99.90;;;;;;5092323;28;20512;-78
2021/12/18 12:49:18;;;;;;;14.93;8.93;;;2.20;99.90;;;;;;5092574;28;20078;-77
2021/12/18 12:52:09;;;;;;;14.02;6.78;;;2.20;99.90;;;;;;5092446;28;20052;-77
2021/12/18 12:54:59;;;;;;;13.38;6.93;;;2.20;99.90;;;;;;5073436;28;20054;-79
2021/12/18 12:57:53;;;;;;;17.33;6.82;;;2.30;99.90;;;;;;5071935;28;20517;-79
2021/12/18 13:00:47;;;;;;;7.30;5.00;;;2.30;99.90;;;;;;5071916;28;20139;-80
2021/12/18 13:03:33;;;;;;;5.90;4.63;;;2.30;99.90;;;;;;5071614;28;20078;-78
2021/12/18 13:06:09;;;;;;;5.93;4.63;;;2.20;99.90;;;;;;5089673;28;20059;-81
2021/12/18 13:08:47;;;;;;;7.70;5.35;;;2.20;99.90;;;;;;5072916;28;20056;-82
2021/12/18 13:11:21;;;;;;;9.02;5.20;;;2.30;99.90;;;;;;5069358;28;20048;-80
2021/12/18 13:13:51;;;;;;;5.88;4.50;;;2.20;99.90;;;;;;5087573;28;20059;-82
2021/12/18 13:16:20;;;;;;;4.95;3.30;;;2.20;99.90;;;;;;5071805;28;20045;-82
2021/12/18 13:18:53;;;;;;;6.70;3.15;;;2.20;99.90;;;;;;5053124;28;20071;-83
2021/12/18 13:21:25;;;;;;;2.58;2.25;;;2.10;99.90;;;;;;5071728;28;20047;-78
2021/12/18 13:23:57;;;;;;;2.63;2.42;;;2.00;99.90;;;;;;5069781;28;20044;-80
2021/12/18 13:26:32;;;;;;;5.38;2.78;;;1.90;99.90;;;;;;5052235;28;20149;-80
2021/12/18 13:29:07;;;;;;;4.57;3.20;;;1.90;99.90;;;;;;5070173;28;20083;-79
2021/12/18 13:31:39;;;;;;;3.53;2.95;;;1.80;99.90;;;;;;5076669;28;20427;-79
2021/12/18 13:34:14;;;;;;;3.95;3.30;;;1.80;99.90;;;;;;5059470;28;20052;-85
2021/12/18 13:36:53;;;;;;;3.80;2.53;;;1.80;99.90;;;;;;5067570;28;20424;-83
2021/12/18 13:39:23;;;;;;;4.22;2.90;;;1.80;99.90;;;;;;5082033;28;20058;-82
2021/12/18 13:42:09;;;;;;;4.88;3.63;;;1.80;99.90;;;;;;5090883;28;20060;-81
2021/12/18 13:44:44;;;;;;;9.75;3.47;;;1.70;99.90;;;;;;5068798;28;20048;-82
2021/12/18 13:47:35;;;;;;;5.55;4.32;;;1.70;99.90;;;;;;5070009;28;20054;-85
2021/12/18 13:50:17;;;;;;;7.93;4.20;;;1.60;99.90;;;;;;5090814;28;20484;-85
2021/12/18 13:52:51;;;;;;;12.18;4.82;;;1.70;99.90;;;;;;5061671;28;20063;-86
2021/12/18 13:55:28;;;;;;;8.15;5.40;;;1.70;99.90;;;;;;5077428;28;20136;-85
2021/12/18 13:58:06;;;;;;;11.40;5.55;;;1.70;99.90;;;;;;5079749;28;20090;-90
2021/12/18 14:00:53;;;;;;;6.25;4.72;;;1.60;99.90;;;;;;5073177;28;20522;-86
2021/12/18 14:03:23;;;;;;;8.13;4.88;;;1.60;99.90;;;;;;5078531;28;20058;-85
2021/12/18 14:05:55;;;;;;;11.48;5.10;;;1.60;99.90;;;;;;5082105;28;20045;-88
2021/12/18 14:08:31;;;;;;;12.23;6.50;;;1.60;99.90;;;;;;5087055;28;20143;-85
2021/12/18 14:11:03;;;;;;;8.10;4.72;;;1.60;99.90;;;;;;5074748;28;20080;-84
2021/12/18 14:13:42;;;;;;;6.68;5.00;;;1.60;99.90;;;;;;5070783;28;20048;-84
2021/12/18 14:16:10;;;;;;;8.57;4.85;;;1.60;99.90;;;;;;5070564;28;20040;-83
2021/12/18 14:18:47;;;;;;;6.80;4.53;;;1.60;99.90;;;;;;5063520;28;20147;-84
2021/12/18 14:21:20;;;;;;;6.13;4.97;;;1.60;99.90;;;;;;5070509;28;20099;-82
2021/12/18 14:23:49;;;;;;;5.03;4.53;;;1.60;99.90;;;;;;5076152;28;20080;-81
2021/12/18 14:26:26;;;;;;;7.40;5.15;;;1.70;99.90;;;;;;5071519;28;20048;-84
2021/12/18 14:28:57;;;;;;;5.85;4.63;;;1.80;99.90;;;;;;5082127;28;20048;-86
2021/12/18 14:31:38;;;;;;;8.60;6.20;;;1.80;99.90;;;;;;5089986;28;20056;-84
2021/12/18 14:34:22;;;;;;;6.82;4.93;;;1.80;99.90;;;;;;5068422;28;20137;-83
2021/12/18 14:37:04;;;;;;;6.85;5.55;;;1.80;99.90;;;;;;5075374;28;20441;-92
2021/12/18 14:39:40;;;;;;;7.32;5.15;;;1.70;99.90;;;;;;5081498;28;20058;-91
2021/12/18 14:42:17;;;;;;;3.97;3.63;;;1.70;99.90;;;;;;5070920;28;20052;-85
2021/12/18 14:44:58;;;;;;;5.80;3.95;;;1.70;99.90;;;;;;5057272;28;20138;-83
2021/12/18 14:47:32;;;;;;;5.63;4.78;;;1.70;99.90;;;;;;5069861;28;20527;-84
2021/12/18 14:50:20;;;;;;;5.20;4.45;;;1.80;99.90;;;;;;5052311;28;20045;-83
2021/12/18 14:53:05;;;;;;;3.95;3.60;;;1.80;99.90;;;;;;5065462;28;20588;-94
2021/12/18 14:55:37;;;;;;;5.32;4.60;;;1.80;99.90;;;;;;5083003;28;20052;-86
2021/12/18 14:58:07;;;;;;;5.05;4.45;;;1.80;99.90;;;;;;5087434;28;20144;-86
2021/12/18 15:00:43;;;;;;;4.32;3.92;;;1.90;99.90;;;;;;5072331;28;20059;-86
2021/12/18 15:03:20;;;;;;;5.65;3.75;;;1.80;99.90;;;;;;5094551;28;20055;-85
2021/12/18 15:06:09;;;;;;;4.30;3.88;;;1.90;99.90;;;;;;5093186;28;20527;-85
2021/12/18 15:08:48;;;;;;;4.65;3.05;;;1.90;99.90;;;;;;5080278;28;20118;-85
2021/12/18 15:11:46;;;;;;;4.20;3.55;;;1.80;99.90;;;;;;5056451;28;20080;-84
2021/12/18 15:14:18;;;;;;;5.93;3.60;;;1.80;99.90;;;;;;5083546;28;20052;-83
2021/12/18 15:16:47;;;;;;;5.53;4.50;;;1.80;99.90;;;;;;5088642;28;20032;-79
2021/12/18 15:19:19;;;;;;;7.22;5.32;;;1.80;99.90;;;;;;5077116;28;20036;-83
2021/12/18 15:21:49;;;;;;;11.52;7.85;;;1.80;99.90;;;;;;5075641;28;20052;-83
2021/12/18 15:24:20;;;;;;;6.53;5.63;;;1.80;99.90;;;;;;5073164;28;20052;-80
2021/12/18 15:26:52;;;;;;;15.15;4.78;;;1.80;99.90;;;;;;5072870;28;20071;-83
2021/12/18 15:29:23;;;;;;;11.95;5.13;;;1.80;99.90;;;;;;5060420;28;20051;-82
2021/12/18 15:31:53;;;;;;;10.18;5.93;;;1.70;99.90;;;;;;5072927;28;20060;-82
2021/12/18 15:34:23;;;;;;;8.23;4.03;;;1.70;99.90;;;;;;5038219;28;20125;-79
2021/12/18 15:37:00;;;;;;;7.10;4.93;;;1.70;99.90;;;;;;5054506;28;20143;-80
2021/12/18 15:39:32;;;;;;;6.25;4.10;;;1.70;99.90;;;;;;5062792;28;20051;-82
2021/12/18 15:42:01;;;;;;;6.25;3.63;;;1.70;99.90;;;;;;5041887;28;20515;-80
2021/12/18 15:44:30;;;;;;;4.30;3.47;;;1.70;99.90;;;;;;5075912;28;20071;-84
2021/12/18 15:47:01;;;;;;;4.80;3.45;;;1.70;99.90;;;;;;5074747;28;20057;-84
2021/12/18 15:49:29;;;;;;;5.32;3.92;;;1.60;99.90;;;;;;5054556;28;20516;-82
2021/12/18 15:51:57;;;;;;;6.53;3.33;;;1.60;99.90;;;;;;5076967;28;20035;-81
2021/12/18 15:54:26;;;;;;;8.20;3.67;;;1.70;99.90;;;;;;5072357;28;20052;-83
2021/12/18 15:56:55;;;;;;;7.22;3.75;;;1.70;99.90;;;;;;5071576;28;20075;-81
2021/12/18 15:59:22;;;;;;;7.55;4.45;;;1.70;99.90;;;;;;5054146;28;20102;-81
2021/12/18 16:01:50;;;;;;;6.78;5.30;;;1.70;99.90;;;;;;5057158;28;20048;-84
2021/12/18 16:04:18;;;;;;;8.05;5.32;;;1.70;99.90;;;;;;5072767;28;20056;-81
2021/12/18 16:06:49;;;;;;;8.35;4.90;;;1.70;99.90;;;;;;5077498;28;20065;-82
2021/12/18 16:09:17;;;;;;;9.38;4.57;;;1.70;99.90;;;;;;5053154;28;20049;-83
2021/12/18 16:11:45;;;;;;;8.27;5.32;;;1.70;99.90;;;;;;5056702;28;20063;-81
2021/12/18 16:14:17;;;;;;;18.05;6.13;;;1.70;99.90;;;;;;5071685;28;20519;-81
2021/12/18 16:16:49;;;;;;;6.43;4.57;;;1.70;99.90;;;;;;5088431;28;20423;-83
2021/12/18 16:19:17;;;;;;;11.35;5.40;;;1.70;99.90;;;;;;5071604;28;20051;-81
2021/12/18 16:21:45;;;;;;;13.27;4.55;;;1.70;99.90;;;;;;5081134;28;20044;-81
2021/12/18 16:24:13;;;;;;;9.60;4.90;;;1.70;99.90;;;;;;5050611;28;20052;-84
2021/12/18 16:26:41;;;;;;;11.10;5.18;;;1.70;99.90;;;;;;5089448;28;20070;-80
2021/12/18 16:29:08;;;;;;;8.65;4.38;;;1.60;99.90;;;;;;5090772;28;20055;-83
2021/12/18 16:31:38;;;;;;;9.90;4.57;;;1.70;99.90;;;;;;5077896;28;20087;-82
2021/12/18 16:34:10;;;;;;;23.00;5.05;;;1.70;99.90;;;;;;5090863;28;20081;-82
2021/12/18 16:36:38;;;;;;;15.55;5.45;;;1.70;99.90;;;;;;5074015;28;20064;-82
2021/12/18 16:39:07;;;;;;;15.18;6.05;;;1.80;99.90;;;;;;5057369;28;20402;-81
2021/12/18 16:41:41;;;;;;;16.55;4.60;;;1.70;99.90;;;;;;5054876;28;20055;-84
2021/12/18 16:44:09;;;;;;;8.35;4.18;;;1.70;99.90;;;;;;5068800;28;20102;-85
2021/12/18 16:46:42;;;;;;;12.65;4.50;;;1.70;99.90;;;;;;5069262;28;20139;-84
2021/12/18 16:49:19;;;;;;;8.25;4.03;;;1.70;99.90;;;;;;5066721;28;20051;-84
2021/12/18 16:52:06;;;;;;;7.70;4.15;;;1.70;99.90;;;;;;5053201;28;20463;-81
2021/12/18 16:54:47;;;;;;;6.22;4.03;;;1.80;99.90;;;;;;5048545;28;20048;-81
2021/12/18 16:57:32;;;;;;;7.38;4.50;;;1.80;99.90;;;;;;5052358;28;20047;-84
2021/12/18 17:00:39;;;;;;;5.60;3.95;;;1.90;99.90;;;;;;5042564;28;20389;-81
2021/12/18 17:03:16;;;;;;;5.70;4.10;;;1.90;99.90;;;;;;5062571;28;20065;-82
2021/12/18 17:05:55;;;;;;;7.65;4.88;;;1.90;99.90;;;;;;5077317;28;20075;-83
2021/12/18 17:09:05;;;;;;;6.75;4.35;;;2.00;99.90;;;;;;5018868;28;20145;-82
2021/12/18 17:16:33;;;;;;;;;;;;;;;;;;;;;
2021/12/18 17:20:00;;;;;;;10.93;5.45;;;2.00;99.90;;;;;;4961660;28;20463;-88
2021/12/18 17:22:53;;;;;;;26.98;6.68;;;2.00;99.90;;;;;;4969090;28;20514;-80
2021/12/18 17:34:02;;;;;;;;;;;;;;;;;;;;;
2021/12/18 17:37:19;;;;;;;11.63;6.07;;;2.00;99.90;;;;;;4841310;29;20566;-83
2021/12/18 17:44:31;;;;;;;13.35;6.95;;;2.10;99.90;;;;;;4804757;29;20079;-85
2021/12/18 17:47:33;;;;;;;8.02;4.97;;;2.10;99.90;;;;;;4815019;29;20051;-84
2021/12/18 17:50:02;;;;;;;17.80;6.73;;;2.10;99.90;;;;;;4886595;29;20055;-82
2021/12/18 17:53:06;;;;;;;15.18;6.53;;;2.10;99.90;;;;;;4906727;29;20331;-88
2021/12/18 17:55:38;;;;;;;12.57;7.18;;;2.10;99.90;;;;;;4991016;28;20057;-90
2021/12/18 17:58:07;;;;;;;;;;;2.10;99.90;;;;;;5007153;28;20068;-84
2021/12/18 18:00:40;;;;;;;8.38;5.60;;;2.10;99.90;;;;;;5001595;28;20341;-86
2021/12/18 18:03:20;;;;;;;12.43;5.32;;;2.10;99.90;;;;;;5005640;28;20049;-84
2021/12/18 18:06:25;;;;;;;;;;;;;;;;;;;;;
2021/12/18 18:09:47;;;;;;;34.80;9.45;;;2.20;99.90;;;;;;4987993;28;20470;-89
2021/12/18 18:13:34;;;;;;;;;;;;;;;;;;;;;
2021/12/18 18:16:19;;;;;;;21.40;5.25;;;2.20;99.90;;;;;;4952073;28;20057;-85
2021/12/18 18:18:47;;;;;;;15.98;5.65;;;2.20;99.90;;;;;;4991636;28;20418;-84
2021/12/18 18:21:15;;;;;;;23.45;5.32;;;2.10;99.90;;;;;;5007111;28;20056;-82
2021/12/18 18:23:43;;;;;;;18.83;4.43;;;2.10;99.90;;;;;;4999099;28;20056;-88
2021/12/18 18:27:20;;;;;;;50.20;5.43;;;2.10;99.90;;;;;;4988125;28;20046;-84
2021/12/18 18:29:52;;;;;;;17.92;6.88;;;2.10;99.90;;;;;;5002014;28;20052;-88
2021/12/18 18:32:26;;;;;;;19.10;6.03;;;2.10;99.90;;;;;;5010871;28;20053;-85
2021/12/18 18:34:59;;;;;;;22.08;5.75;;;2.20;99.90;;;;;;4989101;28;20065;-86
2021/12/18 18:37:46;;;;;;;37.38;6.85;;;2.20;99.90;;;;;;5008270;28;20073;-84
2021/12/18 18:40:22;;;;;;;22.58;6.80;;;2.30;99.90;;;;;;4992338;28;20108;-91
2021/12/18 18:44:07;;;;;;;45.42;7.53;;;2.40;99.90;;;;;;4988274;28;20049;-88
2021/12/18 18:47:03;;;;;;;16.92;6.22;;;2.40;99.90;;;;;;4982137;28;20125;-89
2021/12/18 18:50:43;;;;;;;12.18;5.45;;;2.40;99.90;;;;;;4956908;28;20316;-90
2021/12/18 18:53:18;;;;;;;;;;;2.40;99.90;;;;;;4988127;28;20109;-86
2021/12/18 18:55:46;;;;;;;14.23;7.32;;;2.40;99.90;;;;;;4985744;28;19971;-86
2021/12/18 18:58:15;;;;;;;16.67;5.75;;;2.40;99.90;;;;;;4980902;28;20056;-84
2021/12/18 19:00:46;;;;;;;10.07;5.45;;;2.40;99.90;;;;;;5010294;28;20041;-81
2021/12/18 19:03:14;;;;;;;9.10;5.72;;;2.50;99.90;;;;;;5012681;28;20081;-83
2021/12/18 19:05:42;;;;;;;10.60;6.00;;;2.60;99.90;;;;;;5012085;28;20037;-80
2021/12/18 19:08:12;;;;;;;12.50;6.43;;;2.60;99.90;;;;;;4992458;28;20050;-81
2021/12/18 19:10:43;;;;;;;14.73;5.65;;;2.60;99.90;;;;;;4970253;28;20137;-82
2021/12/18 19:13:22;;;;;;;12.85;5.95;;;2.60;99.90;;;;;;4991063;28;20465;-83
2021/12/18 19:16:25;;;;;;;16.30;6.45;;;2.60;99.90;;;;;;4987859;28;20653;-82
2021/12/18 19:18:59;;;;;;;10.88;5.85;;;2.70;99.90;;;;;;4974658;28;20049;-82
2021/12/18 19:21:28;;;;;;;12.50;6.53;;;2.70;99.90;;;;;;4982956;28;20128;-81
2021/12/18 19:23:57;;;;;;;9.48;6.07;;;2.60;99.90;;;;;;5008397;28;20238;-83
2021/12/18 19:26:27;;;;;;;8.98;5.75;;;2.70;99.90;;;;;;4993703;28;20042;-82
2021/12/18 19:28:56;;;;;;;19.98;10.98;;;2.70;99.90;;;;;;5012842;28;20462;-80
2021/12/18 19:31:25;;;;;;;7.95;5.75;;;2.80;99.90;;;;;;5005661;28;20038;-80
2021/12/18 19:33:56;;;;;;;12.65;5.50;;;2.80;99.90;;;;;;5004342;28;20509;-79
2021/12/18 19:36:27;;;;;;;26.50;7.85;;;2.80;99.90;;;;;;5010283;28;20480;-81
2021/12/18 19:38:54;;;;;;;23.15;9.20;;;2.80;99.90;;;;;;5011331;28;20050;-80
2021/12/18 19:41:23;;;;;;;21.45;9.52;;;2.80;99.90;;;;;;4993808;28;20528;-83
2021/12/18 19:43:51;;;;;;;35.42;10.48;;;2.70;99.90;;;;;;5012102;28;20060;-79
2021/12/18 19:46:19;;;;;;;22.95;8.85;;;2.60;99.90;;;;;;4977863;28;20053;-80
2021/12/18 19:48:48;;;;;;;19.80;8.77;;;2.70;99.90;;;;;;5011976;28;20050;-81
2021/12/18 19:51:19;;;;;;;20.73;10.93;;;2.60;99.90;;;;;;5011060;28;20434;-79
2021/12/18 19:53:47;;;;;;;19.38;10.75;;;2.60;99.90;;;;;;5011576;28;20092;-80
2021/12/18 19:56:15;;;;;;;10.48;6.95;;;2.60;99.90;;;;;;4994157;28;20044;-80
2021/12/18 19:58:44;;;;;;;17.08;6.60;;;2.60;99.90;;;;;;5009892;28;20049;-78
2021/12/18 20:01:12;;;;;;;12.43;6.65;;;2.50;99.90;;;;;;5020757;28;20588;-80
2021/12/18 20:06:27;;;;;;;15.15;7.90;;;2.50;99.90;;;;;;5010887;28;20144;-79
2021/12/18 20:08:54;;;;;;;11.20;6.63;;;2.50;99.90;;;;;;4993226;28;20391;-80
2021/12/18 20:11:25;;;;;;;9.57;5.57;;;2.60;99.90;;;;;;5010964;28;20050;-78
2021/12/18 20:13:53;;;;;;;10.38;6.60;;;2.50;99.90;;;;;;5011303;28;20085;-79
2021/12/18 20:16:25;;;;;;;12.02;5.57;;;2.50;99.90;;;;;;4993570;28;20046;-82
2021/12/18 20:18:52;;;;;;;11.25;5.43;;;2.50;99.90;;;;;;5011068;28;20038;-79
2021/12/18 20:21:20;;;;;;;11.10;6.53;;;2.50;99.90;;;;;;4976933;28;20081;-79
2021/12/18 20:23:49;;;;;;;10.95;5.75;;;2.50;99.90;;;;;;5010786;28;20077;-79
2021/12/18 20:26:16;;;;;;;8.35;4.72;;;2.50;99.90;;;;;;5011509;28;20045;-80
2021/12/18 20:28:46;;;;;;;7.10;5.00;;;2.50;99.90;;;;;;5011471;28;20046;-80
2021/12/18 20:31:14;;;;;;;8.07;4.55;;;2.50;99.90;;;;;;4994506;28;20053;-81
2021/12/18 20:33:44;;;;;;;12.27;4.93;;;2.40;99.90;;;;;;5011977;28;20057;-80
2021/12/18 20:36:12;;;;;;;5.78;4.35;;;2.50;99.90;;;;;;4994168;28;20061;-80
2021/12/18 20:38:40;;;;;;;7.82;4.88;;;2.50;99.90;;;;;;5010806;28;20525;-81
2021/12/18 20:41:13;;;;;;;8.07;4.25;;;2.50;99.90;;;;;;4993455;28;20050;-78
2021/12/18 20:43:42;;;;;;;6.22;3.72;;;2.50;99.90;;;;;;5004629;28;20084;-80
2021/12/18 20:46:11;;;;;;;5.43;3.90;;;2.50;99.90;;;;;;5011380;28;20064;-80
2021/12/18 20:48:42;;;;;;;7.47;4.05;;;2.50;99.90;;;;;;4990549;28;20049;-81
2021/12/18 20:51:11;;;;;;;9.65;4.18;;;2.60;99.90;;;;;;4990985;28;20077;-79
2021/12/18 20:53:40;;;;;;;5.57;3.75;;;2.50;99.90;;;;;;5007121;28;20074;-78
2021/12/18 20:56:09;;;;;;;4.22;3.55;;;2.60;99.90;;;;;;5009569;28;20140;-80
2021/12/18 20:58:37;;;;;;;5.70;3.58;;;2.50;99.90;;;;;;4992464;28;20407;-78
2021/12/18 21:01:07;;;;;;;6.25;3.40;;;2.50;99.90;;;;;;5010570;28;20414;-77
2021/12/18 21:03:36;;;;;;;5.57;3.22;;;2.50;99.90;;;;;;5008139;28;20045;-78
2021/12/18 21:06:07;;;;;;;7.07;3.15;;;2.50;99.90;;;;;;5009782;28;20068;-80
2021/12/18 21:08:36;;;;;;;4.93;3.20;;;2.60;99.90;;;;;;5001479;28;20506;-79
2021/12/18 21:11:14;;;;;;;5.45;3.47;;;2.60;99.90;;;;;;4989581;28;20051;-79
2021/12/18 21:14:09;;;;;;;5.03;3.40;;;2.60;99.90;;;;;;4989656;28;20498;-80
2021/12/18 21:16:38;;;;;;;3.35;3.05;;;2.60;99.90;;;;;;4977969;28;20050;-79
2021/12/18 21:19:07;;;;;;;2.45;2.25;;;2.60;99.90;;;;;;5004629;28;20065;-78
2021/12/18 21:21:35;;;;;;;3.45;2.88;;;2.60;99.90;;;;;;5009277;28;20050;-78
2021/12/18 21:24:04;;;;;;;2.55;1.77;;;2.50;99.90;;;;;;5010565;28;20054;-78
2021/12/18 21:26:36;;;;;;;4.95;1.90;;;2.50;99.90;;;;;;5009255;28;20056;-79
2021/12/18 21:29:07;;;;;;;2.22;1.98;;;2.50;99.90;;;;;;5011012;28;20580;-79
2021/12/18 21:31:36;;;;;;;3.80;2.05;;;2.50;99.90;;;;;;5009571;28;20061;-78
2021/12/18 21:34:17;;;;;;;3.03;2.15;;;2.50;99.90;;;;;;5009844;28;20069;-77
2021/12/18 21:36:48;;;;;;;3.55;1.90;;;2.50;99.90;;;;;;5007615;28;20057;-78
2021/12/18 21:39:36;;;;;;;2.10;1.90;;;2.50;99.90;;;;;;5003150;28;20060;-80
2021/12/18 21:42:08;;;;;;;5.82;1.83;;;2.50;99.90;;;;;;5001455;28;20054;-78
2021/12/18 21:44:36;;;;;;;5.20;3.03;;;2.60;99.90;;;;;;5006244;28;20049;-77
2021/12/18 21:47:04;;;;;;;3.33;2.58;;;2.50;99.90;;;;;;5008939;28;20046;-78
2021/12/18 21:49:32;;;;;;;1.58;1.42;;;2.50;99.90;;;;;;4997162;28;20050;-78
2021/12/18 21:52:03;;;;;;;4.13;2.08;;;2.60;99.90;;;;;;4993445;28;20073;-80
2021/12/18 21:54:31;;;;;;;5.75;1.80;;;2.60;99.90;;;;;;5009588;28;20049;-79
2021/12/18 21:56:59;;;;;;;2.40;1.58;;;2.50;99.90;;;;;;4994243;28;20088;-79
2021/12/18 21:59:28;;;;;;;3.83;1.50;;;2.50;99.90;;;;;;5004920;28;20145;-78
2021/12/18 22:01:55;;;;;;;5.47;1.80;;;2.60;99.90;;;;;;5009076;28;20049;-78
2021/12/18 22:04:27;;;;;;;2.60;1.67;;;2.60;99.90;;;;;;4992705;28;20057;-78
2021/12/18 22:06:58;;;;;;;3.78;1.55;;;2.60;99.90;;;;;;5009679;28;20049;-79
2021/12/18 22:09:26;;;;;;;2.85;1.90;;;2.60;99.90;;;;;;5010573;28;20038;-79
2021/12/18 22:11:55;;;;;;;1.83;1.60;;;2.60;99.90;;;;;;4992861;28;20128;-77
2021/12/18 22:14:24;;;;;;;2.70;2.22;;;2.60;99.90;;;;;;5009862;28;20403;-78
2021/12/18 22:16:55;;;;;;;2.55;1.60;;;2.60;99.90;;;;;;4991330;28;20052;-78
2021/12/18 22:19:24;;;;;;;2.60;1.60;;;2.60;99.90;;;;;;4992623;28;20065;-78
2021/12/18 22:21:51;;;;;;;2.95;1.70;;;2.70;99.90;;;;;;5008525;28;20049;-78
2021/12/18 22:24:20;;;;;;;2.35;1.67;;;2.70;99.90;;;;;;5009347;28;20133;-78
2021/12/18 22:26:48;;;;;;;4.20;1.83;;;2.60;99.90;;;;;;5010341;28;20037;-78
2021/12/18 22:29:16;;;;;;;3.38;1.42;;;2.70;99.90;;;;;;5009623;28;20046;-77
2021/12/18 22:31:44;;;;;;;1.40;1.30;;;2.60;99.90;;;;;;4992233;28;20138;-79
2021/12/18 22:34:12;;;;;;;3.25;1.77;;;2.60;99.90;;;;;;5008841;28;20058;-79
2021/12/18 22:36:40;;;;;;;2.08;1.80;;;2.60;99.90;;;;;;5010219;28;20042;-79
2021/12/18 22:39:08;;;;;;;2.60;2.05;;;2.60;99.90;;;;;;5009721;28;20076;-79
2021/12/18 22:41:38;;;;;;;3.78;1.40;;;2.60;99.90;;;;;;5010434;28;20042;-78
2021/12/18 22:44:06;;;;;;;1.52;1.33;;;2.60;99.90;;;;;;4988246;28;20502;-78
2021/12/18 22:46:36;;;;;;;1.67;1.55;;;2.60;99.90;;;;;;5004314;28;20050;-80
2021/12/18 22:49:08;;;;;;;3.13;1.25;;;2.60;99.90;;;;;;5009520;28;20054;-78
2021/12/18 22:51:37;;;;;;;2.72;1.67;;;2.70;99.90;;;;;;5008988;28;20060;-78
2021/12/18 22:54:05;;;;;;;1.75;1.65;;;2.60;99.90;;;;;;5008850;28;20050;-78
2021/12/18 22:56:33;;;;;;;1.98;1.40;;;2.60;99.90;;;;;;4990562;28;20050;-78
2021/12/18 22:59:01;;;;;;;3.38;1.40;;;2.70;99.90;;;;;;5002455;28;20579;-78
2021/12/18 23:01:30;;;;;;;1.38;1.27;;;2.70;99.90;;;;;;5006109;28;20421;-79
2021/12/18 23:03:58;;;;;;;1.13;1.00;;;2.60;99.90;;;;;;5001323;28;20066;-79
2021/12/18 23:06:26;;;;;;;1.33;1.10;;;2.70;99.90;;;;;;5010201;28;20045;-78
2021/12/18 23:08:56;;;;;;;2.20;1.35;;;2.70;99.90;;;;;;4990793;28;20425;-79
2021/12/18 23:11:30;;;;;;;2.65;1.35;;;2.60;99.90;;;;;;4988900;28;20037;-78
2021/12/18 23:17:01;;;;;;;1.55;0.90;;;2.70;99.90;;;;;;5008643;28;20058;-79
2021/12/18 23:20:06;;;;;;;1.52;0.70;;;2.70;99.90;;;;;;4988255;28;20058;-78
2021/12/18 23:22:35;;;;;;;3.10;1.13;;;2.70;99.90;;;;;;5012666;28;20060;-79
2021/12/18 23:25:04;;;;;;;1.23;1.02;;;2.70;99.90;;;;;;4994420;28;20049;-79
2021/12/18 23:27:32;;;;;;;2.25;0.90;;;2.70;99.90;;;;;;5011205;28;20133;-79
2021/12/18 23:30:02;;;;;;;3.78;1.15;;;2.70;99.90;;;;;;5012946;28;20069;-79
2021/12/18 23:32:30;;;;;;;1.92;0.80;;;2.70;99.90;;;;;;4994027;28;20058;-79
2021/12/18 23:35:04;;;;;;;4.53;1.33;;;2.70;99.90;;;;;;5010227;28;20054;-78
2021/12/18 23:37:32;;;;;;;1.98;1.00;;;2.70;99.90;;;;;;4993793;28;20049;-78
2021/12/18 23:40:00;;;;;;;2.30;0.98;;;2.70;99.90;;;;;;4977101;28;20068;-78
2021/12/18 23:42:29;;;;;;;1.77;0.70;;;2.70;99.90;;;;;;4994399;28;20142;-77
2021/12/18 23:47:42;;;;;;;1.45;0.82;;;2.70;99.90;;;;;;5010802;28;20052;-79
2021/12/18 23:50:11;;;;;;;2.20;0.95;;;2.70;99.90;;;;;;5013247;28;20049;-79
2021/12/18 23:52:39;;;;;;;3.50;0.90;;;2.70;99.90;;;;;;4995618;28;20073;-76
2021/12/18 23:55:07;;;;;;;1.27;0.82;;;2.70;99.90;;;;;;4994916;28;20453;-77
2021/12/18 23:57:36;;;;;;;1.60;0.68;;;2.70;99.90;;;;;;5011944;28;20050;-77
